createdAt,value
2018-03-30T00:00:00.900Z,95.00
2018-03-30T00:02:28.354Z,95.00
2018-03-30T00:04:55.836Z,95.00
2018-03-30T00:07:23.293Z,95.10
2018-03-30T00:09:56.654Z,95.40
2018-03-30T00:12:24.114Z,95.00
2018-03-30T00:14:51.565Z,95.00
2018-03-30T00:17:19.026Z,94.90
2018-03-30T00:19:46.484Z,94.50
2018-03-30T00:22:13.940Z,94.30
2018-03-30T00:24:41.415Z,94.40
2018-03-30T00:27:08.861Z,94.40
2018-03-30T00:29:36.317Z,94.60
2018-03-30T00:32:03.799Z,94.30
2018-03-30T00:34:31.228Z,94.30
2018-03-30T00:36:58.660Z,94.30
2018-03-30T00:39:26.880Z,94.30
2018-03-30T00:41:54.335Z,94.20
2018-03-30T00:44:21.791Z,94.30
2018-03-30T00:46:49.267Z,94.50
2018-03-30T00:49:16.703Z,94.10
2018-03-30T00:51:44.155Z,94.00
2018-03-30T00:54:11.611Z,94.20
2018-03-30T00:56:39.887Z,94.50
2018-03-30T00:59:07.329Z,94.40
2018-03-30T01:01:34.791Z,94.40
2018-03-30T01:04:02.253Z,94.70
2018-03-30T01:06:29.709Z,94.90
2018-03-30T01:08:57.160Z,95.60
2018-03-30T01:11:24.618Z,94.60
2018-03-30T01:13:52.039Z,94.20
2018-03-30T01:16:19.487Z,94.40
2018-03-30T01:18:46.933Z,94.60
2018-03-30T01:21:14.391Z,94.80
2018-03-30T01:23:41.846Z,94.60
2018-03-30T01:26:09.311Z,94.40
2018-03-30T01:28:36.760Z,94.60
2018-03-30T01:31:04.219Z,94.60
2018-03-30T01:33:31.655Z,94.70
2018-03-30T01:35:59.103Z,94.90
2018-03-30T01:38:26.539Z,94.80
2018-03-30T01:40:53.987Z,94.80
2018-03-30T01:43:22.188Z,95.20
2018-03-30T01:45:49.635Z,94.80
2018-03-30T01:48:17.087Z,94.90
2018-03-30T01:50:44.548Z,95.20
2018-03-30T01:53:11.985Z,95.10
2018-03-30T01:55:40.206Z,95.40
2018-03-30T01:58:07.648Z,95.40
2018-03-30T02:00:35.095Z,95.30
2018-03-30T02:03:02.545Z,95.40
2018-03-30T02:05:30.005Z,95.40
2018-03-30T02:07:58.228Z,95.40
2018-03-30T02:10:25.677Z,95.30
2018-03-30T02:12:53.109Z,95.50
2018-03-30T02:15:20.551Z,95.40
2018-03-30T02:17:48.000Z,95.40
2018-03-30T02:20:16.236Z,95.50
2018-03-30T02:22:43.695Z,95.60
2018-03-30T02:25:11.144Z,95.90
2018-03-30T02:27:38.616Z,95.60
2018-03-30T02:30:06.060Z,95.70
2018-03-30T02:32:34.295Z,95.90
2018-03-30T02:35:01.734Z,95.90
2018-03-30T02:37:29.961Z,95.90
2018-03-30T02:39:57.402Z,96.20
2018-03-30T02:42:24.843Z,95.80
2018-03-30T02:44:52.293Z,96.00
2018-03-30T02:47:19.742Z,96.30
2018-03-30T02:49:47.182Z,96.40
2018-03-30T02:52:15.410Z,96.80
2018-03-30T02:54:42.851Z,96.80
2018-03-30T02:57:10.304Z,96.50
2018-03-30T02:59:37.780Z,96.40
2018-03-30T03:02:05.231Z,96.50
2018-03-30T03:04:32.674Z,96.40
2018-03-30T03:07:00.132Z,96.60
2018-03-30T03:09:27.576Z,96.70
2018-03-30T03:11:55.031Z,96.90
2018-03-30T03:14:22.498Z,97.20
2018-03-30T03:16:49.954Z,96.90
2018-03-30T03:19:17.428Z,96.90
2018-03-30T03:21:44.889Z,96.90
2018-03-30T03:24:12.324Z,97.10
2018-03-30T03:26:39.779Z,97.50
2018-03-30T03:29:07.247Z,97.20
2018-03-30T03:31:34.699Z,97.40
2018-03-30T03:34:02.155Z,97.80
2018-03-30T03:36:29.633Z,97.50
2018-03-30T03:38:57.085Z,97.70
2018-03-30T03:41:24.543Z,97.70
2018-03-30T03:43:51.994Z,97.70
2018-03-30T03:46:19.439Z,98.20
2018-03-30T03:48:46.887Z,97.60
2018-03-30T03:51:14.352Z,97.40
2018-03-30T03:53:41.803Z,97.30
2018-03-30T03:56:09.260Z,97.80
2018-03-30T03:58:36.706Z,97.80
2018-03-30T04:01:04.903Z,97.30
2018-03-30T04:03:32.369Z,97.30
2018-03-30T04:05:59.807Z,97.50
2018-03-30T04:08:27.262Z,98.00
2018-03-30T04:10:54.707Z,98.80
2018-03-30T04:13:22.931Z,99.10
2018-03-30T04:15:50.370Z,99.10
2018-03-30T04:18:17.825Z,99.30
2018-03-30T04:20:45.268Z,99.40
2018-03-30T04:23:12.739Z,99.40
2018-03-30T04:25:40.179Z,99.90
2018-03-30T04:28:07.640Z,99.50
2018-03-30T04:30:35.083Z,99.60
2018-03-30T04:33:03.287Z,99.90
2018-03-30T04:35:30.747Z,99.90
2018-03-30T04:37:58.187Z,99.90
2018-03-30T04:40:25.643Z,99.90
2018-03-30T04:42:53.107Z,99.90
2018-03-30T04:45:20.564Z,99.80
2018-03-30T04:47:48.016Z,99.90
2018-03-30T04:50:15.482Z,99.90
2018-03-30T04:52:42.929Z,99.90
2018-03-30T04:55:10.379Z,97.90
2018-03-30T04:57:37.830Z,96.10
2018-03-30T05:00:05.294Z,96.00
2018-03-30T05:02:32.765Z,96.80
2018-03-30T05:05:00.222Z,97.10
2018-03-30T05:07:27.675Z,98.00
2018-03-30T05:09:55.132Z,96.50
2018-03-30T05:12:22.567Z,98.20
2018-03-30T05:14:50.775Z,99.90
2018-03-30T05:17:18.236Z,99.90
2018-03-30T05:19:45.675Z,99.90
2018-03-30T05:22:13.131Z,99.90
2018-03-30T05:24:40.575Z,99.90
2018-03-30T05:27:08.031Z,99.90
2018-03-30T05:29:36.238Z,99.90
2018-03-30T05:32:03.693Z,99.90
2018-03-30T05:34:31.144Z,99.90
2018-03-30T05:36:58.579Z,99.90
2018-03-30T05:39:26.019Z,99.90
2018-03-30T05:41:54.240Z,99.90
2018-03-30T05:44:21.680Z,99.90
2018-03-30T05:46:49.122Z,99.90
2018-03-30T05:49:17.339Z,99.50
2018-03-30T05:51:44.790Z,99.50
2018-03-30T05:54:12.236Z,99.10
2018-03-30T05:56:39.691Z,98.10
2018-03-30T05:59:07.138Z,97.90
2018-03-30T06:01:34.591Z,97.70
2018-03-30T06:04:02.049Z,97.40
2018-03-30T06:06:29.499Z,97.00
2018-03-30T06:08:56.959Z,97.60
2018-03-30T06:11:24.428Z,97.90
2018-03-30T06:13:51.874Z,98.00
2018-03-30T06:16:19.331Z,98.40
2018-03-30T06:18:46.787Z,98.40
2018-03-30T06:21:14.242Z,98.30
2018-03-30T06:23:41.719Z,98.40
2018-03-30T06:26:09.162Z,98.00
2018-03-30T06:28:36.631Z,98.20
2018-03-30T06:31:04.091Z,98.30
2018-03-30T06:33:31.547Z,98.10
2018-03-30T06:35:58.993Z,98.20
2018-03-30T06:38:26.444Z,97.90
2018-03-30T06:40:53.903Z,98.00
2018-03-30T06:43:21.374Z,98.40
2018-03-30T06:45:48.831Z,97.90
2018-03-30T06:48:16.292Z,98.10
2018-03-30T06:50:43.731Z,98.10
2018-03-30T06:53:11.952Z,97.20
2018-03-30T06:55:39.406Z,97.20
2018-03-30T06:58:06.839Z,96.50
2018-03-30T07:00:34.280Z,96.20
2018-03-30T07:03:02.494Z,95.20
2018-03-30T07:05:29.931Z,95.20
2018-03-30T07:07:57.375Z,94.80
2018-03-30T07:10:24.815Z,94.70
2018-03-30T07:12:53.021Z,94.60
2018-03-30T07:15:20.476Z,94.50
2018-03-30T07:17:47.915Z,94.50
2018-03-30T07:20:15.368Z,94.30
2018-03-30T07:22:42.839Z,94.70
2018-03-30T07:25:10.297Z,94.10
2018-03-30T07:27:37.760Z,93.70
2018-03-30T07:30:05.200Z,93.20
2018-03-30T07:32:32.654Z,92.90
2018-03-30T07:35:00.111Z,91.60
2018-03-30T07:37:27.573Z,91.50
2018-03-30T07:39:55.011Z,91.30
2018-03-30T07:42:23.231Z,90.70
2018-03-30T07:44:50.680Z,90.70
2018-03-30T07:47:18.134Z,89.80
2018-03-30T07:49:45.576Z,88.20
2018-03-30T07:52:13.037Z,88.40
2018-03-30T07:54:41.244Z,89.50
2018-03-30T07:57:08.695Z,88.50
2018-03-30T07:59:36.153Z,87.90
2018-03-30T08:02:03.596Z,87.80
2018-03-30T08:04:31.060Z,86.00
2018-03-30T08:06:58.515Z,86.10
2018-03-30T08:09:25.954Z,86.80
2018-03-30T08:11:53.402Z,87.30
2018-03-30T08:14:20.855Z,86.80
2018-03-30T08:16:48.304Z,87.70
2018-03-30T08:19:16.524Z,87.80
2018-03-30T08:21:43.963Z,87.00
2018-03-30T08:24:11.407Z,87.20
2018-03-30T08:26:39.614Z,85.70
2018-03-30T08:29:07.068Z,85.70
2018-03-30T08:31:34.554Z,84.80
2018-03-30T08:34:02.739Z,85.10
2018-03-30T08:36:30.196Z,85.10
2018-03-30T08:38:57.651Z,83.40
2018-03-30T08:41:25.108Z,81.80
2018-03-30T08:43:52.565Z,80.90
2018-03-30T08:46:20.023Z,79.80
2018-03-30T08:48:47.487Z,78.50
2018-03-30T08:51:14.938Z,74.70
2018-03-30T08:53:42.394Z,73.20
2018-03-30T08:56:09.865Z,71.00
2018-03-30T08:58:37.312Z,72.90
2018-03-30T09:01:04.766Z,75.40
2018-03-30T09:03:32.209Z,73.00
2018-03-30T09:05:59.668Z,72.50
2018-03-30T09:08:27.098Z,70.10
2018-03-30T09:10:54.547Z,74.10
2018-03-30T09:13:21.987Z,74.50
2018-03-30T09:15:49.471Z,70.70
2018-03-30T09:18:16.919Z,68.10
2018-03-30T09:20:44.376Z,70.60
2018-03-30T09:23:11.823Z,70.60
2018-03-30T09:25:39.276Z,71.20
2018-03-30T09:28:06.727Z,68.70
2018-03-30T09:30:34.175Z,68.90
2018-03-30T09:33:02.404Z,62.50
2018-03-30T09:35:29.843Z,62.60
2018-03-30T09:37:57.295Z,66.50
2018-03-30T09:40:24.737Z,59.00
2018-03-30T09:42:52.180Z,56.30
2018-03-30T09:45:20.392Z,55.50
2018-03-30T09:47:47.836Z,55.30
2018-03-30T09:50:15.271Z,51.60
2018-03-30T09:52:43.474Z,50.00
2018-03-30T09:55:10.924Z,50.00
2018-03-30T09:57:38.366Z,51.00
2018-03-30T10:00:05.810Z,53.00
2018-03-30T10:02:34.036Z,50.50
2018-03-30T10:05:01.473Z,50.50
2018-03-30T10:07:28.930Z,49.50
2018-03-30T10:09:56.377Z,51.70
2018-03-30T10:12:23.815Z,52.00
2018-03-30T10:14:52.018Z,51.20
2018-03-30T10:17:19.476Z,51.30
2018-03-30T10:19:46.927Z,50.40
2018-03-30T10:22:14.380Z,52.20
2018-03-30T10:24:41.824Z,49.10
2018-03-30T10:27:10.028Z,46.90
2018-03-30T10:29:37.485Z,46.90
2018-03-30T10:32:04.925Z,46.10
2018-03-30T10:34:32.396Z,47.00
2018-03-30T10:36:59.836Z,46.80
2018-03-30T10:39:27.300Z,46.60
2018-03-30T10:41:54.731Z,42.80
2018-03-30T10:44:22.943Z,39.20
2018-03-30T10:46:50.379Z,39.20
2018-03-30T10:49:17.835Z,40.50
2018-03-30T10:51:45.294Z,38.60
2018-03-30T10:54:12.755Z,37.30
2018-03-30T10:56:40.193Z,37.70
2018-03-30T10:59:08.402Z,38.50
2018-03-30T11:01:35.843Z,38.40
2018-03-30T11:04:03.296Z,38.20
2018-03-30T11:06:30.756Z,38.30
2018-03-30T11:08:58.207Z,37.90
2018-03-30T11:11:25.667Z,37.70
2018-03-30T11:13:53.871Z,37.50
2018-03-30T11:16:21.317Z,37.50
2018-03-30T11:18:48.759Z,37.40
2018-03-30T11:21:16.204Z,38.00
2018-03-30T11:23:44.416Z,36.90
2018-03-30T11:26:11.860Z,36.80
2018-03-30T11:28:39.306Z,37.30
2018-03-30T11:31:07.160Z,37.30
2018-03-30T11:33:35.377Z,38.10
2018-03-30T11:36:02.863Z,38.00
2018-03-30T11:38:30.263Z,37.80
2018-03-30T11:40:57.719Z,38.00
2018-03-30T11:43:25.195Z,38.20
2018-03-30T11:45:52.631Z,39.30
2018-03-30T11:48:20.086Z,40.20
2018-03-30T11:50:47.564Z,40.20
2018-03-30T11:53:15.019Z,41.00
2018-03-30T11:55:42.479Z,42.50
2018-03-30T11:58:09.943Z,43.30
2018-03-30T12:00:37.393Z,44.00
2018-03-30T12:03:04.830Z,44.70
2018-03-30T12:05:32.307Z,45.10
2018-03-30T12:07:59.776Z,46.30
2018-03-30T12:10:27.220Z,46.50
2018-03-30T12:12:54.690Z,47.10
2018-03-30T12:15:22.124Z,47.60
2018-03-30T12:17:49.607Z,48.90
2018-03-30T12:20:17.814Z,49.80
2018-03-30T12:22:45.256Z,49.80
2018-03-30T12:25:12.707Z,51.70
2018-03-30T12:27:40.152Z,52.10
2018-03-30T12:30:07.608Z,54.20
2018-03-30T12:32:35.048Z,54.70
2018-03-30T12:35:02.530Z,56.00
2018-03-30T12:37:29.982Z,57.30
2018-03-30T12:39:57.434Z,57.70
2018-03-30T12:42:24.873Z,58.20
2018-03-30T12:44:52.322Z,58.80
2018-03-30T12:47:19.815Z,59.70
2018-03-30T12:49:47.227Z,59.70
2018-03-30T12:52:14.683Z,59.50
2018-03-30T12:54:42.187Z,60.30
2018-03-30T12:57:09.634Z,61.80
2018-03-30T12:59:37.079Z,63.60
2018-03-30T13:02:04.526Z,66.20
2018-03-30T13:04:31.990Z,70.80
2018-03-30T13:06:59.435Z,78.40
2018-03-30T13:09:26.920Z,81.30
2018-03-30T13:11:54.354Z,81.00
2018-03-30T13:14:21.809Z,83.30
2018-03-30T13:16:49.289Z,76.10
2018-03-30T13:19:16.740Z,77.10
2018-03-30T13:21:44.167Z,76.40
2018-03-30T13:24:11.623Z,80.70
2018-03-30T13:26:39.089Z,85.10
2018-03-30T13:29:07.291Z,91.10
2018-03-30T13:31:34.730Z,91.10
2018-03-30T13:34:02.171Z,92.30
2018-03-30T13:36:29.611Z,93.10
2018-03-30T13:38:57.831Z,94.00
2018-03-30T13:41:25.259Z,94.00
2018-03-30T13:43:52.714Z,95.00
2018-03-30T13:46:20.925Z,94.70
2018-03-30T13:48:48.380Z,94.70
2018-03-30T13:51:19.467Z,96.00
2018-03-30T13:53:59.736Z,96.70
2018-03-30T13:56:28.798Z,96.80
2018-03-30T13:59:10.608Z,96.70
2018-03-30T14:01:39.751Z,97.00
2018-03-30T14:04:10.201Z,97.70
2018-03-30T14:06:41.171Z,98.70
2018-03-30T14:09:13.244Z,99.30
2018-03-30T14:11:53.345Z,99.90
2018-03-30T14:14:20.790Z,98.90
2018-03-30T14:16:50.197Z,99.10
2018-03-30T14:19:27.559Z,99.80
2018-03-30T14:24:54.653Z,99.60
2018-03-30T14:27:35.587Z,99.90
2018-03-30T14:30:07.563Z,99.90
2018-03-30T14:32:42.239Z,99.90
2018-03-30T14:35:10.536Z,99.90
2018-03-30T14:37:38.886Z,99.90
2018-03-30T14:40:15.868Z,98.50
2018-03-30T14:42:44.111Z,99.20
2018-03-30T14:45:19.170Z,99.90
2018-03-30T14:47:50.139Z,99.70
2018-03-30T14:50:24.220Z,99.60
2018-03-30T14:53:08.272Z,99.90
2018-03-30T14:55:37.531Z,99.90
2018-03-30T14:58:11.787Z,99.90
2018-03-30T15:00:52.106Z,99.90
2018-03-30T15:03:28.049Z,99.90
2018-03-30T15:09:13.872Z,99.90
2018-03-30T15:12:02.911Z,99.90
2018-03-30T15:14:35.196Z,99.90
2018-03-30T15:17:14.331Z,99.90
2018-03-30T15:19:42.536Z,99.90
2018-03-30T15:25:23.815Z,99.90
2018-03-30T15:27:52.014Z,99.90
2018-03-30T15:30:22.031Z,99.90
2018-03-30T15:32:51.252Z,99.90
2018-03-30T15:35:18.689Z,99.90
2018-03-30T15:37:46.145Z,99.90
2018-03-30T15:40:15.171Z,99.90
2018-03-30T15:42:47.132Z,99.90
2018-03-30T15:48:12.758Z,99.90
2018-03-30T15:50:40.200Z,99.90
2018-03-30T15:53:07.663Z,99.90
2018-03-30T15:55:35.086Z,99.90
2018-03-30T15:58:03.300Z,99.90
2018-03-30T16:00:30.737Z,99.90
2018-03-30T16:02:58.196Z,99.90
2018-03-30T16:05:25.650Z,99.90
2018-03-30T16:07:53.787Z,99.90
2018-03-30T16:10:21.222Z,99.90
2018-03-30T16:12:54.026Z,99.90
2018-03-30T16:15:21.483Z,99.90
2018-03-30T16:17:48.940Z,99.90
2018-03-30T16:20:16.655Z,99.90
2018-03-30T16:22:43.608Z,99.90
2018-03-30T16:25:10.550Z,99.90
2018-03-30T16:27:37.516Z,99.90
2018-03-30T16:30:04.453Z,99.90
2018-03-30T16:32:31.416Z,99.90
2018-03-30T16:34:58.376Z,99.90
2018-03-30T16:37:25.331Z,99.90
2018-03-30T16:39:53.062Z,99.90
2018-03-30T16:42:20.004Z,99.90
2018-03-30T16:44:46.976Z,99.90
2018-03-30T16:47:13.932Z,99.90
2018-03-30T16:49:41.689Z,99.90
2018-03-30T16:52:08.631Z,99.90
2018-03-30T16:54:35.595Z,99.90
2018-03-30T16:57:03.312Z,99.90
2018-03-30T16:59:30.314Z,99.90
2018-03-30T17:01:57.231Z,99.90
2018-03-30T17:04:24.966Z,99.90
2018-03-30T17:06:52.688Z,99.90
2018-03-30T17:09:19.651Z,99.90
2018-03-30T17:11:46.600Z,99.90
2018-03-30T17:14:13.560Z,99.90
2018-03-30T17:16:40.505Z,99.90
2018-03-30T17:19:08.283Z,99.90
2018-03-30T17:21:35.252Z,99.90
2018-03-30T17:24:02.976Z,99.90
2018-03-30T17:26:29.924Z,99.90
2018-03-30T17:28:56.871Z,99.90
2018-03-30T17:31:23.819Z,99.90
2018-03-30T17:33:50.779Z,99.90
2018-03-30T17:36:17.740Z,99.90
2018-03-30T17:38:45.468Z,99.90
2018-03-30T17:41:12.449Z,99.90
2018-03-30T17:43:40.167Z,99.90
2018-03-30T17:46:07.120Z,99.90
2018-03-30T17:48:34.071Z,99.90
2018-03-30T17:51:01.055Z,99.90
2018-03-30T17:53:27.996Z,99.90
2018-03-30T17:55:55.727Z,99.90
2018-03-30T17:58:22.753Z,99.90
2018-03-30T18:00:49.659Z,99.90
2018-03-30T18:03:17.392Z,99.90
2018-03-30T18:05:44.359Z,99.90
2018-03-30T18:08:11.310Z,99.90
2018-03-30T18:10:39.032Z,99.90
2018-03-30T18:13:05.971Z,99.90
2018-03-30T18:15:32.923Z,99.90
2018-03-30T18:17:59.879Z,99.90
2018-03-30T18:20:26.849Z,99.90
2018-03-30T18:22:53.799Z,99.90
2018-03-30T18:25:20.762Z,99.90
2018-03-30T18:27:47.742Z,99.90
2018-03-30T18:30:14.688Z,99.90
2018-03-30T18:32:41.647Z,99.90
2018-03-30T18:35:08.599Z,99.90
2018-03-30T18:37:35.575Z,99.90
2018-03-30T18:40:02.534Z,99.90
2018-03-30T18:42:29.490Z,99.90
2018-03-30T18:44:56.438Z,99.90
2018-03-30T18:47:23.398Z,99.90
2018-03-30T18:49:50.351Z,99.90
2018-03-30T18:52:17.311Z,99.90
2018-03-30T18:54:44.259Z,99.90
2018-03-30T18:57:11.259Z,99.90
2018-03-30T18:59:38.959Z,99.90
2018-03-30T19:02:05.946Z,99.90
2018-03-30T19:04:33.659Z,99.90
2018-03-30T19:07:00.607Z,99.90
2018-03-30T19:09:27.564Z,99.90
2018-03-30T19:11:54.507Z,99.90
2018-03-30T19:14:21.527Z,99.90
2018-03-30T19:16:48.446Z,99.90
2018-03-30T19:19:16.160Z,99.90
2018-03-30T19:21:43.108Z,99.90
2018-03-30T19:24:10.059Z,99.90
2018-03-30T19:26:36.998Z,99.90
2018-03-30T19:29:03.960Z,99.90
2018-03-30T19:31:30.925Z,99.90
2018-03-30T19:33:57.891Z,99.90
2018-03-30T19:36:24.843Z,99.90
2018-03-30T19:38:51.815Z,99.90
2018-03-30T19:41:18.779Z,99.90
2018-03-30T19:43:45.743Z,99.90
2018-03-30T19:46:12.700Z,99.90
2018-03-30T19:48:39.658Z,99.90
2018-03-30T19:51:07.419Z,99.90
2018-03-30T19:53:34.319Z,99.90
2018-03-30T19:56:01.284Z,99.90
2018-03-30T19:58:28.231Z,99.90
2018-03-30T20:00:55.190Z,99.90
2018-03-30T20:03:22.906Z,99.90
2018-03-30T20:05:50.442Z,99.90
2018-03-30T20:08:17.407Z,99.90
2018-03-30T20:10:44.351Z,99.90
2018-03-30T20:13:11.295Z,99.90
2018-03-30T20:15:38.256Z,99.90
2018-03-30T20:18:05.207Z,99.90
2018-03-30T20:20:32.183Z,99.90
2018-03-30T20:22:59.896Z,99.90
2018-03-30T20:25:26.858Z,99.90
2018-03-30T20:27:53.838Z,99.90
2018-03-30T20:30:20.788Z,99.90
2018-03-30T20:32:48.523Z,99.90
2018-03-30T20:35:15.464Z,99.90
2018-03-30T20:37:42.419Z,99.70
2018-03-30T20:40:09.382Z,99.90
2018-03-30T20:42:36.352Z,99.90
2018-03-30T20:45:03.311Z,99.90
2018-03-30T20:47:30.275Z,99.90
2018-03-30T20:49:57.215Z,99.90
2018-03-30T20:52:24.159Z,99.90
2018-03-30T20:54:51.113Z,99.90
2018-03-30T20:57:18.068Z,99.90
2018-03-30T20:59:45.011Z,99.80
2018-03-30T21:02:11.975Z,99.90
2018-03-30T21:04:38.920Z,99.90
2018-03-30T21:07:05.912Z,99.90
2018-03-30T21:09:32.867Z,99.90
2018-03-30T21:11:59.830Z,99.90
2018-03-30T21:14:26.787Z,99.90
2018-03-30T21:16:53.740Z,99.90
2018-03-30T21:19:20.696Z,99.90
2018-03-30T21:21:47.660Z,99.90
2018-03-30T21:24:15.382Z,99.90
2018-03-30T21:26:42.331Z,99.90
2018-03-30T21:29:09.315Z,99.90
2018-03-30T21:31:37.027Z,99.90
2018-03-30T21:34:03.991Z,99.90
2018-03-30T21:36:30.937Z,99.90
2018-03-30T21:38:57.908Z,99.90
2018-03-30T21:41:24.900Z,99.90
2018-03-30T21:43:52.588Z,99.90
2018-03-30T21:46:19.535Z,99.90
2018-03-30T21:48:46.488Z,99.90
2018-03-30T21:51:13.444Z,99.90
2018-03-30T21:53:40.421Z,99.90
2018-03-30T21:56:08.137Z,99.90
2018-03-30T21:58:35.083Z,99.90
2018-03-30T22:01:02.027Z,99.90
2018-03-30T22:03:28.980Z,99.90
2018-03-30T22:05:55.960Z,99.90
2018-03-30T22:08:23.663Z,99.90
2018-03-30T22:10:50.612Z,99.90
2018-03-30T22:13:18.335Z,99.90
2018-03-30T22:15:46.058Z,99.90
2018-03-30T22:18:13.026Z,99.90
2018-03-30T22:20:40.007Z,99.90
2018-03-30T22:23:06.956Z,99.90
2018-03-30T22:25:33.915Z,99.90
2018-03-30T22:28:00.865Z,99.90
2018-03-30T22:30:27.815Z,99.90
2018-03-30T22:32:54.763Z,99.90
2018-03-30T22:35:21.719Z,99.90
2018-03-30T22:37:48.667Z,99.50
2018-03-30T22:40:15.640Z,99.90
2018-03-30T22:42:42.587Z,99.90
2018-03-30T22:45:10.316Z,99.90
2018-03-30T22:47:37.256Z,99.90
2018-03-30T22:50:04.245Z,99.90
2018-03-30T22:52:31.959Z,99.90
2018-03-30T22:54:58.921Z,99.90
2018-03-30T22:57:25.880Z,99.90
2018-03-30T22:59:52.863Z,99.90
2018-03-30T23:02:19.820Z,99.90
2018-03-30T23:04:46.783Z,99.90
2018-03-30T23:07:13.731Z,99.90
2018-03-30T23:09:40.678Z,99.90
2018-03-30T23:12:07.643Z,99.90
2018-03-30T23:14:34.613Z,99.90
2018-03-30T23:17:01.559Z,99.90
2018-03-30T23:19:29.297Z,99.90
2018-03-30T23:21:56.258Z,99.90
2018-03-30T23:24:23.216Z,99.90
2018-03-30T23:26:50.929Z,99.90
2018-03-30T23:29:17.881Z,99.90
2018-03-30T23:31:44.839Z,99.90
2018-03-30T23:34:11.823Z,99.90
2018-03-30T23:36:39.537Z,99.90
2018-03-30T23:39:06.479Z,99.90
2018-03-30T23:41:33.473Z,99.90
2018-03-30T23:44:00.436Z,99.90
2018-03-30T23:46:27.407Z,99.90
2018-03-30T23:48:54.356Z,99.90
2018-03-30T23:51:21.316Z,99.90
2018-03-30T23:53:48.259Z,99.90
2018-03-30T23:56:15.243Z,99.90
2018-03-30T23:58:42.960Z,99.90
